X  Zatvori METAR podaci zračne luke        LDPL Pula
Temperatura
20°C Temperatura
18°C Točka rosišta
88% Vlaga



Vjetar
4 KM/S
2 MPS
1 M/S
2 Čvorovi



-1°
VRB
Trenutna situacija

Partly Cloudy Djelimično oblačno
Tlak zraka 1010 (hPa) - 29.82 (inHg)
Vidljivost 6 (milje) - 10 (km)
Zračna luka
Kôd zračne luke LDPL

Lokacija: Pula
Udaljenost: 39 (km)

Metar:
METAR LDPL 160230Z VRB02KT 9999 SCT057 20/18 Q1010 NOSIG

Vrijeme: 16-06-2024 04:30 CEST